createdAt,value
2024-01-08T00:03:17.466Z,3.38
2024-01-08T00:08:20.235Z,3.47
2024-01-08T00:13:22.128Z,3.55
2024-01-08T00:18:24.148Z,3.10
2024-01-08T00:23:26.393Z,3.60
2024-01-08T00:28:28.306Z,3.80
2024-01-08T00:33:30.288Z,3.60
2024-01-08T00:38:32.272Z,3.28
2024-01-08T00:43:34.324Z,3.00
2024-01-08T00:48:36.336Z,3.53
2024-01-08T00:53:38.428Z,3.80
2024-01-08T00:58:43.349Z,4.13
2024-01-08T01:03:45.410Z,4.63
2024-01-08T01:08:47.705Z,3.33
2024-01-08T01:13:49.731Z,4.20
2024-01-08T01:18:51.897Z,3.75
2024-01-08T01:23:53.990Z,4.50
2024-01-08T01:28:56.007Z,3.63
2024-01-08T01:33:58.169Z,3.75
2024-01-08T01:39:00.569Z,3.60
2024-01-08T01:44:02.552Z,3.08
2024-01-08T01:49:05.893Z,4.55
2024-01-08T01:54:09.601Z,3.22
2024-01-08T01:59:12.065Z,3.33
2024-01-08T02:04:16.817Z,4.40
2024-01-08T02:09:19.694Z,5.72
2024-01-08T02:14:21.646Z,4.28
2024-01-08T02:19:23.599Z,4.82
2024-01-08T02:24:30.065Z,4.55
2024-01-08T02:29:32.038Z,4.15
2024-01-08T02:34:34.937Z,5.15
2024-01-08T02:39:37.470Z,4.85
2024-01-08T02:44:39.347Z,6.53
2024-01-08T02:49:41.290Z,7.05
2024-01-08T02:54:43.293Z,6.47
2024-01-08T02:59:45.191Z,6.20
2024-01-08T03:04:47.251Z,4.85
2024-01-08T03:09:50.320Z,6.50
2024-01-08T03:14:53.212Z,6.18
2024-01-08T03:19:55.398Z,4.63
2024-01-08T03:24:57.607Z,5.95
2024-01-08T03:29:59.553Z,5.70
2024-01-08T03:35:02.016Z,5.47
2024-01-08T03:40:06.177Z,6.57
2024-01-08T03:45:10.656Z,6.25
2024-01-08T03:50:12.870Z,7.80
2024-01-08T03:55:14.953Z,6.00
2024-01-08T04:00:17.513Z,6.22
2024-01-08T04:05:19.718Z,6.22
2024-01-08T04:10:22.392Z,7.63
2024-01-08T04:15:24.769Z,4.65
2024-01-08T04:20:26.871Z,6.50
2024-01-08T04:25:28.983Z,6.28
2024-01-08T04:30:31.118Z,7.22
2024-01-08T04:35:33.656Z,6.45
2024-01-08T04:40:36.000Z,6.30
2024-01-08T04:45:38.237Z,7.10
2024-01-08T04:50:40.396Z,6.75
2024-01-08T04:55:42.692Z,7.30
2024-01-08T05:00:44.872Z,5.13
2024-01-08T05:05:47.021Z,6.32
2024-01-08T05:10:49.561Z,6.32
2024-01-08T05:15:51.599Z,7.97
2024-01-08T05:20:53.748Z,6.22
2024-01-08T05:26:00.794Z,7.60
2024-01-08T05:31:04.042Z,7.20
2024-01-08T05:36:06.753Z,6.30
2024-01-08T05:41:08.994Z,5.97
2024-01-08T05:46:11.642Z,7.22
2024-01-08T05:51:13.877Z,6.18
2024-01-08T05:56:15.967Z,5.80
2024-01-08T06:01:21.365Z,6.65
2024-01-08T06:06:23.807Z,7.80
2024-01-08T06:11:26.080Z,9.00
2024-01-08T06:16:32.430Z,6.30
2024-01-08T06:21:34.465Z,7.93
2024-01-08T06:26:36.757Z,6.25
2024-01-08T06:31:39.046Z,5.97
2024-01-08T06:36:41.516Z,7.53
2024-01-08T06:41:44.386Z,7.07
2024-01-08T06:46:47.813Z,7.35
2024-01-08T06:51:50.399Z,9.55
2024-01-08T06:56:52.488Z,7.00
2024-01-08T07:01:55.592Z,6.80
2024-01-08T07:06:57.675Z,8.18
2024-01-08T07:12:00.698Z,6.80
2024-01-08T07:17:02.939Z,7.18
2024-01-08T07:22:05.576Z,7.10
2024-01-08T07:27:09.527Z,6.50
2024-01-08T07:32:12.508Z,6.60
2024-01-08T07:37:15.013Z,6.38
2024-01-08T07:42:17.244Z,7.30
2024-01-08T07:47:19.804Z,7.70
2024-01-08T07:52:28.004Z,6.57
2024-01-08T07:57:37.196Z,6.38
2024-01-08T08:02:43.847Z,7.25
2024-01-08T08:07:46.083Z,7.45
2024-01-08T08:12:48.019Z,7.32
2024-01-08T08:17:52.074Z,7.43
2024-01-08T08:22:54.912Z,7.30
2024-01-08T08:27:56.893Z,6.25
2024-01-08T08:33:00.670Z,7.15
2024-01-08T08:38:03.276Z,7.53
2024-01-08T08:43:07.464Z,8.15
2024-01-08T08:48:11.178Z,8.68
2024-01-08T08:53:13.320Z,8.68
2024-01-08T08:58:15.737Z,8.20
2024-01-08T09:03:18.467Z,8.07
2024-01-08T09:08:29.849Z,8.55
2024-01-08T09:13:32.005Z,9.05
2024-01-08T09:18:34.048Z,7.80
2024-01-08T09:23:38.763Z,8.55
2024-01-08T09:28:40.875Z,9.05
2024-01-08T09:33:45.794Z,8.05
2024-01-08T09:38:48.242Z,8.38
2024-01-08T09:43:52.104Z,7.72
2024-01-08T09:48:58.064Z,8.38
2024-01-08T09:54:01.617Z,8.60
2024-01-08T09:59:03.995Z,8.00
2024-01-08T10:04:06.498Z,7.18
2024-01-08T10:09:09.218Z,7.55
2024-01-08T10:14:12.172Z,8.60
2024-01-08T10:19:17.082Z,6.72
2024-01-08T10:24:26.028Z,7.43
2024-01-08T10:29:30.705Z,7.63
2024-01-08T10:34:37.725Z,8.77
2024-01-08T10:39:48.154Z,9.52
2024-01-08T10:44:53.640Z,7.75
2024-01-08T10:50:00.684Z,8.13
2024-01-08T11:00:11.157Z,7.32
2024-01-08T11:10:19.725Z,8.73
2024-01-08T11:15:25.171Z,9.05
2024-01-08T11:20:48.785Z,7.50
2024-01-08T11:25:55.452Z,7.43
2024-01-08T11:31:33.086Z,8.80
2024-01-08T11:36:49.908Z,8.20
2024-01-08T11:41:52.308Z,8.60
2024-01-08T11:46:57.676Z,9.38
2024-01-08T11:52:04.887Z,9.18
2024-01-08T11:57:07.274Z,7.88
2024-01-08T12:02:12.841Z,8.10
2024-01-08T12:07:14.974Z,7.55
2024-01-08T12:12:18.974Z,8.77
2024-01-08T12:17:22.227Z,8.90
2024-01-08T12:22:26.865Z,7.50
2024-01-08T12:27:32.215Z,8.02
2024-01-08T12:32:34.594Z,9.35
2024-01-08T12:37:36.819Z,10.07
2024-01-08T12:42:38.823Z,8.35
2024-01-08T12:47:40.998Z,8.25
2024-01-08T12:52:43.366Z,10.18
2024-01-08T12:57:46.551Z,8.27
2024-01-08T13:02:48.628Z,9.48
2024-01-08T13:07:50.806Z,8.32
2024-01-08T13:12:52.826Z,10.00
2024-01-08T13:17:54.994Z,7.90
2024-01-08T13:22:57.774Z,8.43
2024-01-08T13:28:00.169Z,8.35
2024-01-08T13:33:02.251Z,9.02
2024-01-08T13:38:04.567Z,8.60
2024-01-08T13:43:08.289Z,10.43
2024-01-08T13:48:11.319Z,8.43
2024-01-08T13:53:13.780Z,9.05
2024-01-08T13:58:16.063Z,9.32
2024-01-08T14:03:19.593Z,10.73
2024-01-08T14:08:22.008Z,9.93
2024-01-08T14:13:23.936Z,9.57
2024-01-08T14:18:26.421Z,10.02
2024-01-08T14:23:30.080Z,9.95
2024-01-08T14:28:32.403Z,9.18
2024-01-08T14:33:34.577Z,9.00
2024-01-08T14:38:37.001Z,9.88
2024-01-08T14:43:39.397Z,10.95
2024-01-08T14:48:41.651Z,11.07
2024-01-08T14:53:46.064Z,11.05
2024-01-08T14:58:48.518Z,9.95
2024-01-08T15:03:50.741Z,10.02
2024-01-08T15:08:54.511Z,9.73
2024-01-08T15:13:56.820Z,9.70
2024-01-08T15:18:59.006Z,8.48
2024-01-08T15:24:01.317Z,10.40
2024-01-08T15:29:05.921Z,8.70
2024-01-08T15:34:08.174Z,9.52
2024-01-08T15:39:15.691Z,10.60
2024-01-08T15:44:18.231Z,10.27
2024-01-08T15:49:20.351Z,9.18
2024-01-08T15:54:24.762Z,10.52
2024-01-08T15:59:26.878Z,9.80
2024-01-08T16:04:29.241Z,11.90
2024-01-08T16:09:32.615Z,9.48
2024-01-08T16:14:34.969Z,8.02
2024-01-08T16:19:37.103Z,9.20
2024-01-08T16:24:39.119Z,8.30
2024-01-08T16:29:41.273Z,8.95
2024-01-08T16:34:49.592Z,8.73
2024-01-08T16:40:00.711Z,9.00
2024-01-08T16:45:02.700Z,11.07
2024-01-08T16:50:05.026Z,10.25
2024-01-08T16:55:07.627Z,10.23
2024-01-08T17:00:12.208Z,11.02
2024-01-08T17:05:14.867Z,10.75
2024-01-08T17:10:17.754Z,12.75
2024-01-08T17:15:19.992Z,10.73
2024-01-08T17:20:22.079Z,11.18
2024-01-08T17:25:24.314Z,10.82
2024-01-08T17:30:26.291Z,10.65
2024-01-08T17:35:28.632Z,9.70
2024-01-08T17:40:31.181Z,9.60
2024-01-08T17:45:33.407Z,9.20
2024-01-08T17:50:39.176Z,10.68
2024-01-08T17:55:41.587Z,10.30
2024-01-08T18:00:44.109Z,9.60
2024-01-08T18:05:49.095Z,8.95
2024-01-08T18:10:52.230Z,11.00
2024-01-08T18:15:54.272Z,12.45
2024-01-08T18:20:57.541Z,8.90
2024-01-08T18:25:59.689Z,9.18
2024-01-08T18:31:02.727Z,9.75
2024-01-08T18:36:06.316Z,10.82
2024-01-08T18:41:08.503Z,9.23
2024-01-08T18:46:10.895Z,8.80
2024-01-08T18:51:12.896Z,9.32
2024-01-08T18:56:14.954Z,8.65
2024-01-08T19:01:17.875Z,9.07
2024-01-08T19:06:20.029Z,9.55
2024-01-08T19:11:22.045Z,10.60
2024-01-08T19:16:23.996Z,10.68
2024-01-08T19:21:26.069Z,11.32
2024-01-08T19:26:28.611Z,9.02
2024-01-08T19:31:31.668Z,9.98
2024-01-08T19:36:33.752Z,10.60
2024-01-08T19:41:36.162Z,10.10
2024-01-08T19:46:38.435Z,10.45
2024-01-08T19:51:41.768Z,10.02
2024-01-08T19:56:46.351Z,10.27
2024-01-08T20:01:48.678Z,10.98
2024-01-08T20:06:50.811Z,10.85
2024-01-08T20:11:53.000Z,9.95
2024-01-08T20:16:55.199Z,8.80
2024-01-08T20:21:57.345Z,10.10
2024-01-08T20:27:00.951Z,9.65
2024-01-08T20:32:07.303Z,8.57
2024-01-08T20:37:09.593Z,10.77
2024-01-08T20:42:11.534Z,11.57
2024-01-08T20:47:14.547Z,12.00
2024-01-08T20:52:16.684Z,9.23
2024-01-08T20:57:21.726Z,9.60
2024-01-08T21:02:23.737Z,9.95
2024-01-08T21:07:25.750Z,11.25
2024-01-08T21:12:27.950Z,10.68
2024-01-08T21:17:30.240Z,12.13
2024-01-08T21:22:33.297Z,10.50
2024-01-08T21:27:35.321Z,9.75
2024-01-08T21:32:39.190Z,10.63
2024-01-08T21:37:42.441Z,11.77
2024-01-08T21:42:45.420Z,10.52
2024-01-08T21:47:47.768Z,10.98
2024-01-08T21:52:50.402Z,12.70
2024-01-08T21:57:52.281Z,11.27
2024-01-08T22:02:54.752Z,11.70
2024-01-08T22:07:57.933Z,12.23
2024-01-08T22:13:00.199Z,11.82
2024-01-08T22:18:02.537Z,14.20
2024-01-08T22:23:05.051Z,11.37
2024-01-08T22:28:07.178Z,13.30
2024-01-08T22:33:12.655Z,11.50
2024-01-08T22:38:15.186Z,11.53
2024-01-08T22:43:17.222Z,15.05
2024-01-08T22:48:19.232Z,13.07
2024-01-08T22:53:21.619Z,11.95
2024-01-08T22:58:23.666Z,12.15
2024-01-08T23:03:26.118Z,10.80
2024-01-08T23:08:28.266Z,10.50
2024-01-08T23:13:30.304Z,10.68
2024-01-08T23:18:35.314Z,11.90
2024-01-08T23:23:37.528Z,13.77
2024-01-08T23:28:39.578Z,11.40
2024-01-08T23:33:41.798Z,11.13
2024-01-08T23:38:44.800Z,12.00
2024-01-08T23:43:46.970Z,15.90
2024-01-08T23:48:49.197Z,12.00
2024-01-08T23:53:51.637Z,10.60
2024-01-08T23:58:53.595Z,11.70
